Epic Caledonia — 9V2516 — position and weather

sailwx.info

Track history (hours):
 
Tides and Currents Weather Stations Pressure Air Temp Water Temp Dewpoint Dewpoint Depression Visibility Wind Speed Wind Dir Waves Ship Positions

Epic Caledonia

Last reported at 2018-Jun-20 14:17 UTC. Time now 2018-Jun-24 05:12 UTC.
Position N 18°08' W 064°55'.

Length 94 m; draft 4 m.

Type: Tanker. MMSI: 564923000.

Date/timePositionNaut miles runAvg speedWind from/ knotsBaromVisibWave heightAir tempDewpointWater temp
2018-Jun-20 14:17N 18°08' W 064°55'6 0.3
2018-Jun-19 20:36N 18°12' W 064°60'0 1.1
2018-Jun-19 20:18N 18°12' W 064°59'0 1.0
2018-Jun-19 20:00N 18°12' W 064°59'1 0.8
2018-Jun-19 19:17N 18°12' W 064°58'1 1.1
2018-Jun-19 18:29N 18°11' W 064°58'0 0.8
2018-Jun-19 17:56N 18°11' W 064°57'1 0.8
2018-Jun-19 16:17N 18°11' W 064°56'0 0.9
2018-Jun-19 15:58N 18°11' W 064°56'1 0.9
2018-Jun-19 15:18N 18°11' W 064°55'0 0.9
2018-Jun-19 14:55N 18°10' W 064°55'1 0.5
2018-Jun-19 12:23N 18°12' W 064°54'4 6.3
2018-Jun-19 11:44N 18°15' W 064°57'1 1.4
2018-Jun-19 11:15N 18°14' W 064°57'0 1.3
2018-Jun-19 10:55N 18°14' W 064°56'1 1.3
2018-Jun-19 10:30N 18°13' W 064°56'1 1.2
2018-Jun-19 09:59N 18°13' W 064°56'1 1.2
2018-Jun-19 09:29N 18°12' W 064°55'1 1.1
2018-Jun-19 09:00N 18°12' W 064°55'1 1.0
2018-Jun-19 08:30N 18°12' W 064°55'0 1.0
2018-Jun-19 08:00N 18°11' W 064°54'0 0.9
2018-Jun-19 07:28N 18°11' W 064°54'0 0.8
2018-Jun-19 07:00N 18°10' W 064°54'0 0.8
2018-Jun-19 06:26N 18°10' W 064°54'0 0.8
2018-Jun-19 05:55N 18°10' W 064°54'0 0.8
2018-Jun-19 05:29N 18°09' W 064°53'0 0.4
2018-Jun-19 05:00N 18°09' W 064°53'610.1
2018-Jun-19 04:25N 18°14' W 064°57'1 1.3
2018-Jun-19 03:57N 18°15' W 064°57'  
2018-Jun-14 11:26N 10°23' W 076°03'611.6
2018-Jun-14 10:55N 10°17' W 076°03'1012.9
2018-Jun-14 10:07N 10°17' W 075°53'512.8
2018-Jun-14 09:44N 10°17' W 075°48'312.9
2018-Jun-14 09:30N 10°17' W 075°44'612.9
2018-Jun-14 09:00N 10°18' W 075°38'611.2
2018-Jun-14 08:30N 10°19' W 075°32'2 1.1
2018-Jun-14 06:29N 10°18' W 075°30'0 0.0
2018-Jun-14 05:50N 10°18' W 075°30'0 0.0
2018-Jun-14 05:26N 10°18' W 075°30'0 0.0
2018-Jun-14 04:59N 10°18' W 075°30'0 0.0
2018-Jun-14 04:26N 10°18' W 075°30'0 0.0
2018-Jun-14 03:59N 10°18' W 075°30'0 0.0
2018-Jun-14 03:26N 10°18' W 075°30'0 0.0
2018-Jun-14 02:56N 10°18' W 075°30'0 0.0
2018-Jun-14 02:26N 10°18' W 075°30'0 0.0
2018-Jun-14 01:59N 10°18' W 075°30'0 0.0
2018-Jun-14 01:26N 10°18' W 075°30'0 0.0
2018-Jun-14 00:56N 10°18' W 075°30'0 0.0
2018-Jun-14 00:26N 10°18' W 075°30'0 0.0
2018-Jun-13 23:59N 10°18' W 075°30'0 0.0
2018-Jun-13 23:26N 10°18' W 075°30'0 0.0
2018-Jun-13 22:56N 10°18' W 075°30'0 0.0
2018-Jun-13 22:26N 10°18' W 075°30'0 0.0
2018-Jun-13 21:56N 10°18' W 075°30'0 0.0
2018-Jun-13 21:26N 10°18' W 075°30'0 0.0
2018-Jun-13 20:56N 10°18' W 075°30'0 0.0
2018-Jun-13 20:29N 10°18' W 075°30'0 0.0
2018-Jun-13 19:56N 10°18' W 075°30'0 0.0
2018-Jun-13 19:26N 10°18' W 075°30'0 0.0
2018-Jun-13 18:50N 10°18' W 075°30'0 0.0
2018-Jun-13 18:26N 10°18' W 075°30'0 0.0
2018-Jun-13 17:59N 10°18' W 075°30'0 0.0
2018-Jun-13 17:26N 10°18' W 075°30'0 0.0
2018-Jun-13 16:59N 10°18' W 075°30'0 0.0
2018-Jun-13 16:26N 10°18' W 075°30'0 0.0
2018-Jun-13 15:59N 10°18' W 075°30'1 2.5
2018-Jun-13 15:29N 10°19' W 075°32'2 3.8
2018-Jun-13 14:59N 10°19' W 075°33'0 0.0
2018-Jun-13 14:29N 10°19' W 075°33'0 0.0
2018-Jun-13 14:00N 10°19' W 075°33'0 0.1
2018-Jun-13 13:30N 10°19' W 075°34'1 2.1
2018-Jun-13 12:59N 10°19' W 075°33'2 3.8
2018-Jun-13 12:28N 10°19' W 075°31'0 0.0
2018-Jun-13 11:58N 10°19' W 075°31'0 0.0
2018-Jun-13 11:28N 10°19' W 075°31'0 0.0
2018-Jun-13 10:58N 10°19' W 075°31'0 0.0
2018-Jun-13 10:28N 10°19' W 075°31'0 0.0
2018-Jun-13 09:58N 10°19' W 075°31'0 0.0
2018-Jun-13 09:25N 10°19' W 075°31'0 0.0
2018-Jun-13 08:58N 10°19' W 075°31'0 0.0
2018-Jun-13 08:28N 10°19' W 075°31'0 0.0
2018-Jun-13 07:58N 10°19' W 075°31'0 0.0
2018-Jun-13 07:28N 10°19' W 075°31'0 0.0
2018-Jun-13 06:58N 10°19' W 075°31'0 0.0
2018-Jun-13 06:28N 10°19' W 075°31'0 0.0
2018-Jun-13 05:58N 10°19' W 075°31'0 0.0
2018-Jun-13 05:28N 10°19' W 075°31'0 0.0
2018-Jun-13 04:58N 10°19' W 075°31'0 0.0
2018-Jun-13 04:28N 10°19' W 075°31'0 0.0
2018-Jun-13 03:58N 10°19' W 075°31'0 0.0
2018-Jun-13 03:28N 10°19' W 075°31'0 0.0
2018-Jun-13 02:58N 10°19' W 075°31'0 0.0
2018-Jun-13 02:28N 10°19' W 075°31'0 0.0
2018-Jun-13 01:58N 10°19' W 075°31'0 0.0
2018-Jun-13 01:28N 10°19' W 075°31'0 0.0
2018-Jun-13 00:58N 10°19' W 075°31'0 0.0
2018-Jun-13 00:28N 10°19' W 075°31'0 0.0
2018-Jun-12 23:58N 10°19' W 075°31'0 0.0
2018-Jun-12 23:22N 10°19' W 075°31'0 0.0
2018-Jun-12 22:55N 10°19' W 075°31'0 0.0
2018-Jun-12 22:28N 10°19' W 075°31'0 0.0
2018-Jun-12 21:58N 10°19' W 075°31'0 0.0
2018-Jun-12 21:28N 10°19' W 075°31'0 0.0
2018-Jun-12 20:58N 10°19' W 075°31'0 0.0
2018-Jun-12 20:28N 10°19' W 075°31'0 0.0
2018-Jun-12 19:58N 10°19' W 075°31'0 0.0
2018-Jun-12 19:28N 10°19' W 075°31'0 0.0
2018-Jun-12 18:58N 10°19' W 075°31'0 0.0
2018-Jun-12 18:28N 10°19' W 075°31'0 0.0
2018-Jun-12 17:58N 10°19' W 075°31'0 0.9
2018-Jun-12 17:30N 10°19' W 075°31'0 0.5
2018-Jun-12 16:58N 10°19' W 075°31'0 0.0
2018-Jun-12 16:28N 10°19' W 075°31'0 0.1
2018-Jun-12 15:58N 10°19' W 075°31'0 0.0
2018-Jun-12 13:19N 10°19' W 075°31'0 0.0
2018-Jun-12 12:58N 10°19' W 075°31'0 0.0
2018-Jun-12 12:28N 10°19' W 075°31'0 0.0
2018-Jun-12 11:58N 10°19' W 075°31'0 0.0
2018-Jun-12 11:28N 10°19' W 075°31'0 0.0
2018-Jun-12 10:58N 10°19' W 075°31'0 0.0
2018-Jun-12 10:28N 10°19' W 075°31'0 0.0
2018-Jun-12 09:58N 10°19' W 075°31'0 0.0
2018-Jun-12 09:28N 10°19' W 075°31'0 0.1
2018-Jun-12 08:58N 10°19' W 075°31'0 0.1
2018-Jun-12 08:28N 10°19' W 075°31'0 0.1
2018-Jun-12 07:58N 10°19' W 075°31'0 0.0
2018-Jun-12 07:28N 10°19' W 075°31'0 0.0
2018-Jun-12 06:58N 10°19' W 075°31'0 0.1
2018-Jun-12 06:28N 10°19' W 075°31'0 0.0
2018-Jun-12 05:58N 10°19' W 075°31'0 0.1
2018-Jun-12 05:28N 10°19' W 075°31'0 0.0
2018-Jun-12 04:58N 10°19' W 075°31'0 0.0
2018-Jun-12 04:28N 10°19' W 075°31'0 0.1
2018-Jun-12 03:58N 10°19' W 075°31'0 0.0
2018-Jun-12 03:28N 10°19' W 075°31'0 0.0
2018-Jun-12 03:00N 10°19' W 075°31'0 0.0
2018-Jun-12 02:30N 10°19' W 075°31'0 0.0
2018-Jun-12 02:00N 10°19' W 075°31'0 0.0
2018-Jun-12 01:30N 10°19' W 075°31'0 0.0
2018-Jun-12 01:00N 10°19' W 075°31'0 0.0
2018-Jun-12 00:30N 10°19' W 075°31'0 0.0
2018-Jun-12 00:00N 10°19' W 075°31'0 0.0
2018-Jun-11 23:29N 10°19' W 075°31'0 0.0
2018-Jun-11 22:59N 10°19' W 075°31'0 0.0
2018-Jun-11 22:30N 10°19' W 075°31'0 0.0
2018-Jun-11 22:00N 10°19' W 075°31'0 0.0
2018-Jun-11 21:30N 10°19' W 075°31'0 0.0
2018-Jun-11 21:00N 10°19' W 075°31'0 0.0
2018-Jun-11 20:30N 10°19' W 075°31'0 0.0
2018-Jun-11 19:59N 10°19' W 075°31'0 0.0
2018-Jun-11 19:30N 10°19' W 075°31'0 0.0
2018-Jun-11 19:00N 10°19' W 075°31'0 0.0
2018-Jun-11 18:30N 10°19' W 075°31'0 0.0
2018-Jun-11 18:00N 10°19' W 075°31'0 0.1
2018-Jun-11 17:30N 10°19' W 075°31'0 0.1
2018-Jun-11 17:00N 10°19' W 075°31'0 0.0
2018-Jun-11 16:30N 10°19' W 075°31'0 0.0
2018-Jun-11 16:00N 10°19' W 075°31'0 0.0
2018-Jun-11 15:28N 10°19' W 075°31'1 2.8
2018-Jun-11 15:00N 10°19' W 075°33'4 7.6
2018-Jun-11 14:30N 10°18' W 075°36'3 5.0
2018-Jun-11 13:58N 10°18' W 075°39'613.0
2018-Jun-11 13:30N 10°17' W 075°45'713.2
2018-Jun-11 12:58N 10°17' W 075°52'612.9
2018-Jun-11 12:29N 10°16' W 075°58'  
Track history (hours):
 
Tides and Currents Weather Stations Pressure Air Temp Water Temp Dewpoint Dewpoint Depression Visibility Wind Speed Wind Dir Waves Ship Positions

Epic Caledonia

Last reported at 2018-Jun-20 14:17 UTC. Time now 2018-Jun-24 05:12 UTC.
Position N 18°08' W 064°55'.

Length 94 m; draft 4 m.

Type: Tanker. MMSI: 564923000.

Date/timePositionNaut miles runAvg speedWind from/ knotsBaromVisibWave heightAir tempDewpointWater temp
2018-Jun-20 14:17N 18°08' W 064°55'6 0.3
2018-Jun-19 20:36N 18°12' W 064°60'0 1.1
2018-Jun-19 20:18N 18°12' W 064°59'0 1.0
2018-Jun-19 20:00N 18°12' W 064°59'1 0.8
2018-Jun-19 19:17N 18°12' W 064°58'1 1.1
2018-Jun-19 18:29N 18°11' W 064°58'0 0.8
2018-Jun-19 17:56N 18°11' W 064°57'1 0.8
2018-Jun-19 16:17N 18°11' W 064°56'0 0.9
2018-Jun-19 15:58N 18°11' W 064°56'1 0.9
2018-Jun-19 15:18N 18°11' W 064°55'0 0.9
2018-Jun-19 14:55N 18°10' W 064°55'1 0.5
2018-Jun-19 12:23N 18°12' W 064°54'4 6.3
2018-Jun-19 11:44N 18°15' W 064°57'1 1.4
2018-Jun-19 11:15N 18°14' W 064°57'0 1.3
2018-Jun-19 10:55N 18°14' W 064°56'1 1.3
2018-Jun-19 10:30N 18°13' W 064°56'1 1.2
2018-Jun-19 09:59N 18°13' W 064°56'1 1.2
2018-Jun-19 09:29N 18°12' W 064°55'1 1.1
2018-Jun-19 09:00N 18°12' W 064°55'1 1.0
2018-Jun-19 08:30N 18°12' W 064°55'0 1.0
2018-Jun-19 08:00N 18°11' W 064°54'0 0.9
2018-Jun-19 07:28N 18°11' W 064°54'0 0.8
2018-Jun-19 07:00N 18°10' W 064°54'0 0.8
2018-Jun-19 06:26N 18°10' W 064°54'0 0.8
2018-Jun-19 05:55N 18°10' W 064°54'0 0.8
2018-Jun-19 05:29N 18°09' W 064°53'0 0.4
2018-Jun-19 05:00N 18°09' W 064°53'610.1
2018-Jun-19 04:25N 18°14' W 064°57'1 1.3
2018-Jun-19 03:57N 18°15' W 064°57'  
2018-Jun-14 11:26N 10°23' W 076°03'611.6
2018-Jun-14 10:55N 10°17' W 076°03'1012.9
2018-Jun-14 10:07N 10°17' W 075°53'512.8
2018-Jun-14 09:44N 10°17' W 075°48'312.9
2018-Jun-14 09:30N 10°17' W 075°44'612.9
2018-Jun-14 09:00N 10°18' W 075°38'611.2
2018-Jun-14 08:30N 10°19' W 075°32'2 1.1
2018-Jun-14 06:29N 10°18' W 075°30'0 0.0
2018-Jun-14 05:50N 10°18' W 075°30'0 0.0
2018-Jun-14 05:26N 10°18' W 075°30'0 0.0
2018-Jun-14 04:59N 10°18' W 075°30'0 0.0
2018-Jun-14 04:26N 10°18' W 075°30'0 0.0
2018-Jun-14 03:59N 10°18' W 075°30'0 0.0
2018-Jun-14 03:26N 10°18' W 075°30'0 0.0
2018-Jun-14 02:56N 10°18' W 075°30'0 0.0
2018-Jun-14 02:26N 10°18' W 075°30'0 0.0
2018-Jun-14 01:59N 10°18' W 075°30'0 0.0
2018-Jun-14 01:26N 10°18' W 075°30'0 0.0
2018-Jun-14 00:56N 10°18' W 075°30'0 0.0
2018-Jun-14 00:26N 10°18' W 075°30'0 0.0
2018-Jun-13 23:59N 10°18' W 075°30'0 0.0
2018-Jun-13 23:26N 10°18' W 075°30'0 0.0
2018-Jun-13 22:56N 10°18' W 075°30'0 0.0
2018-Jun-13 22:26N 10°18' W 075°30'0 0.0
2018-Jun-13 21:56N 10°18' W 075°30'0 0.0
2018-Jun-13 21:26N 10°18' W 075°30'0 0.0
2018-Jun-13 20:56N 10°18' W 075°30'0 0.0
2018-Jun-13 20:29N 10°18' W 075°30'0 0.0
2018-Jun-13 19:56N 10°18' W 075°30'0 0.0
2018-Jun-13 19:26N 10°18' W 075°30'0 0.0
2018-Jun-13 18:50N 10°18' W 075°30'0 0.0
2018-Jun-13 18:26N 10°18' W 075°30'0 0.0
2018-Jun-13 17:59N 10°18' W 075°30'0 0.0
2018-Jun-13 17:26N 10°18' W 075°30'0 0.0
2018-Jun-13 16:59N 10°18' W 075°30'0 0.0
2018-Jun-13 16:26N 10°18' W 075°30'0 0.0
2018-Jun-13 15:59N 10°18' W 075°30'1 2.5
2018-Jun-13 15:29N 10°19' W 075°32'2 3.8
2018-Jun-13 14:59N 10°19' W 075°33'0 0.0
2018-Jun-13 14:29N 10°19' W 075°33'0 0.0
2018-Jun-13 14:00N 10°19' W 075°33'0 0.1
2018-Jun-13 13:30N 10°19' W 075°34'1 2.1
2018-Jun-13 12:59N 10°19' W 075°33'2 3.8
2018-Jun-13 12:28N 10°19' W 075°31'0 0.0
2018-Jun-13 11:58N 10°19' W 075°31'0 0.0
2018-Jun-13 11:28N 10°19' W 075°31'0 0.0
2018-Jun-13 10:58N 10°19' W 075°31'0 0.0
2018-Jun-13 10:28N 10°19' W 075°31'0 0.0
2018-Jun-13 09:58N 10°19' W 075°31'0 0.0
2018-Jun-13 09:25N 10°19' W 075°31'0 0.0
2018-Jun-13 08:58N 10°19' W 075°31'0 0.0
2018-Jun-13 08:28N 10°19' W 075°31'0 0.0
2018-Jun-13 07:58N 10°19' W 075°31'0 0.0
2018-Jun-13 07:28N 10°19' W 075°31'0 0.0
2018-Jun-13 06:58N 10°19' W 075°31'0 0.0
2018-Jun-13 06:28N 10°19' W 075°31'0 0.0
2018-Jun-13 05:58N 10°19' W 075°31'0 0.0
2018-Jun-13 05:28N 10°19' W 075°31'0 0.0
2018-Jun-13 04:58N 10°19' W 075°31'0 0.0
2018-Jun-13 04:28N 10°19' W 075°31'0 0.0
2018-Jun-13 03:58N 10°19' W 075°31'0 0.0
2018-Jun-13 03:28N 10°19' W 075°31'0 0.0
2018-Jun-13 02:58N 10°19' W 075°31'0 0.0
2018-Jun-13 02:28N 10°19' W 075°31'0 0.0
2018-Jun-13 01:58N 10°19' W 075°31'0 0.0
2018-Jun-13 01:28N 10°19' W 075°31'0 0.0
2018-Jun-13 00:58N 10°19' W 075°31'0 0.0
2018-Jun-13 00:28N 10°19' W 075°31'0 0.0
2018-Jun-12 23:58N 10°19' W 075°31'0 0.0
2018-Jun-12 23:22N 10°19' W 075°31'0 0.0
2018-Jun-12 22:55N 10°19' W 075°31'0 0.0
2018-Jun-12 22:28N 10°19' W 075°31'0 0.0
2018-Jun-12 21:58N 10°19' W 075°31'0 0.0
2018-Jun-12 21:28N 10°19' W 075°31'0 0.0
2018-Jun-12 20:58N 10°19' W 075°31'0 0.0
2018-Jun-12 20:28N 10°19' W 075°31'0 0.0
2018-Jun-12 19:58N 10°19' W 075°31'0 0.0
2018-Jun-12 19:28N 10°19' W 075°31'0 0.0
2018-Jun-12 18:58N 10°19' W 075°31'0 0.0
2018-Jun-12 18:28N 10°19' W 075°31'0 0.0
2018-Jun-12 17:58N 10°19' W 075°31'0 0.9
2018-Jun-12 17:30N 10°19' W 075°31'0 0.5
2018-Jun-12 16:58N 10°19' W 075°31'0 0.0
2018-Jun-12 16:28N 10°19' W 075°31'0 0.1
2018-Jun-12 15:58N 10°19' W 075°31'0 0.0
2018-Jun-12 13:19N 10°19' W 075°31'0 0.0
2018-Jun-12 12:58N 10°19' W 075°31'0 0.0
2018-Jun-12 12:28N 10°19' W 075°31'0 0.0
2018-Jun-12 11:58N 10°19' W 075°31'0 0.0
2018-Jun-12 11:28N 10°19' W 075°31'0 0.0
2018-Jun-12 10:58N 10°19' W 075°31'0 0.0
2018-Jun-12 10:28N 10°19' W 075°31'0 0.0
2018-Jun-12 09:58N 10°19' W 075°31'0 0.0
2018-Jun-12 09:28N 10°19' W 075°31'0 0.1
2018-Jun-12 08:58N 10°19' W 075°31'0 0.1
2018-Jun-12 08:28N 10°19' W 075°31'0 0.1
2018-Jun-12 07:58N 10°19' W 075°31'0 0.0
2018-Jun-12 07:28N 10°19' W 075°31'0 0.0
2018-Jun-12 06:58N 10°19' W 075°31'0 0.1
2018-Jun-12 06:28N 10°19' W 075°31'0 0.0
2018-Jun-12 05:58N 10°19' W 075°31'0 0.1
2018-Jun-12 05:28N 10°19' W 075°31'0 0.0
2018-Jun-12 04:58N 10°19' W 075°31'0 0.0
2018-Jun-12 04:28N 10°19' W 075°31'0 0.1
2018-Jun-12 03:58N 10°19' W 075°31'0 0.0
2018-Jun-12 03:28N 10°19' W 075°31'0 0.0
2018-Jun-12 03:00N 10°19' W 075°31'0 0.0
2018-Jun-12 02:30N 10°19' W 075°31'0 0.0
2018-Jun-12 02:00N 10°19' W 075°31'0 0.0
2018-Jun-12 01:30N 10°19' W 075°31'0 0.0
2018-Jun-12 01:00N 10°19' W 075°31'0 0.0
2018-Jun-12 00:30N 10°19' W 075°31'0 0.0
2018-Jun-12 00:00N 10°19' W 075°31'0 0.0
2018-Jun-11 23:29N 10°19' W 075°31'0 0.0
2018-Jun-11 22:59N 10°19' W 075°31'0 0.0
2018-Jun-11 22:30N 10°19' W 075°31'0 0.0
2018-Jun-11 22:00N 10°19' W 075°31'0 0.0
2018-Jun-11 21:30N 10°19' W 075°31'0 0.0
2018-Jun-11 21:00N 10°19' W 075°31'0 0.0
2018-Jun-11 20:30N 10°19' W 075°31'0 0.0
2018-Jun-11 19:59N 10°19' W 075°31'0 0.0
2018-Jun-11 19:30N 10°19' W 075°31'0 0.0
2018-Jun-11 19:00N 10°19' W 075°31'0 0.0
2018-Jun-11 18:30N 10°19' W 075°31'0 0.0
2018-Jun-11 18:00N 10°19' W 075°31'0 0.1
2018-Jun-11 17:30N 10°19' W 075°31'0 0.1
2018-Jun-11 17:00N 10°19' W 075°31'0 0.0
2018-Jun-11 16:30N 10°19' W 075°31'0 0.0
2018-Jun-11 16:00N 10°19' W 075°31'0 0.0
2018-Jun-11 15:28N 10°19' W 075°31'1 2.8
2018-Jun-11 15:00N 10°19' W 075°33'4 7.6
2018-Jun-11 14:30N 10°18' W 075°36'3 5.0
2018-Jun-11 13:58N 10°18' W 075°39'613.0
2018-Jun-11 13:30N 10°17' W 075°45'713.2
2018-Jun-11 12:58N 10°17' W 075°52'612.9
2018-Jun-11 12:29N 10°16' W 075°58'  

Dump ship's entire track history